• Join FlightAware (Why Join?)
  • Login
  • US Flag 
03:44PM EDT


 

Airport Tracker/Info


-or-


 

Live Flight TrackerFlight Track Log ✈ SWA1802 ✈ 18-Jun-2013 ✈ KMDW - KLAX

Flight Track Log - Related Links

Times and Time Zones

All times are in EDT time to prevent confusion due to time zone crossing. See the SWA1802 flight status page for this flight to view local times or setup timezone preferences in your user account.

Time Position Orientation Groundspeed Altitude Reporting Facility
EDT Latitude Longitude Course Direction KTS MPH feet Rate Location/Type
06:26PM 41.8167 -87.7667 234° Southwest 218 251 2,400  Level Chicago TRACON
06:27PM 41.7631 -87.8642 234° Southwest 266 306 4,800 1,980 Climbing Chicago Center
06:29PM 41.7464 -87.9558 256° West 266 306 7,600 3,000 Climbing Chicago Center
06:30PM 41.7392 -88.0764 265° West 273 314 11,100 2,460 Climbing Chicago Center
06:31PM 41.7364 -88.1881 268° West 299 344 12,700 1,680 Climbing Chicago Center
06:32PM 41.7375 -88.3197 271° West 352 405 14,700 2,100 Climbing Chicago Center
06:33PM 41.7381 -88.4592 270° West 375 432 17,100 2,220 Climbing Chicago Center
06:34PM 41.7381 -88.6331 270° West 391 450 19,400 2,100 Climbing Chicago Center
06:35PM 41.7361 -88.7842 269° West 407 468 21,500 1,920 Climbing Chicago Center
06:36PM 41.7339 -88.9381 269° West 415 478 23,400 1,620 Climbing Chicago Center
06:37PM 41.7303 -89.0947 268° West 423 487 24,900 1,380 Climbing Chicago Center
06:38PM 41.7094 -89.2558 260° West 454 522 26,300 1,500 Climbing Chicago Center
06:39PM 41.6844 -89.4494 260° West 449 517 28,000 1,500 Climbing Chicago Center
06:40PM 41.6639 -89.6092 260° West 450 518 29,500 1,500 Climbing Chicago Center
06:41PM 41.6422 -89.7717 260° West 449 517 31,200 1,860 Climbing Chicago Center
06:42PM 41.6211 -89.9253 260° West 430 495 33,400 1,320 Climbing Chicago Center
06:43PM 41.6017 -90.0739 260° West 414 476 34,000 240 Climbing Chicago Center
06:44PM 41.5756 -90.2567 259° West 417 480 34,000  Level Chicago Center
06:45PM 41.5542 -90.4103 260° West 421 484 34,000  Level Chicago Center
06:46PM 41.5331 -90.5639 260° West 422 486 34,000  Level Chicago Center
06:47PM 41.5108 -90.7153 259° West 420 483 34,000  Level Chicago Center
06:48PM 41.4892 -90.8650 259° West 415 478 34,000  Level Chicago Center
06:49PM 41.4669 -91.0158 259° West 415 478 34,000  Level Chicago Center
06:50PM 41.4406 -91.1942 259° West 411 473 34,000  Level Chicago Center
06:51PM 41.4217 -91.3267 259° West 407 468 34,000  Level Chicago Center
06:52PM 41.3958 -91.5033 259° West 407 468 34,000  Level Chicago Center
06:53PM 41.3733 -91.6503 259° West 408 470 34,000  Level Chicago Center
06:54PM 41.3508 -91.7989 259° West 413 475 34,000  Level Chicago Center
06:55PM 41.3269 -91.9481 258° West 415 478 34,000  Level Chicago Center
06:56PM 41.3036 -92.0975 258° West 416 479 34,000  Level Chicago Center
06:57PM 41.2764 -92.2767 259° West 416 479 34,000  Level Chicago Center
06:59PM 41.2525 -92.4136 257° West 415 478 34,000  Level Chicago Center
07:00PM 41.2289 -92.5656 258° West 421 484 34,000  Level Chicago Center
07:01PM 41.2006 -92.7483 258° West 426 490 34,000  Level Chicago Center
07:02PM 41.1758 -92.8997 258° West 426 490 34,000  Level Chicago Center
07:03PM 41.1394 -93.1153 257° West 429 494 34,000  Level Minneapolis Center
07:04PM 41.1150 -93.2644 258° West 424 488 34,000  Level Minneapolis Center
07:05PM 41.0856 -93.4469 258° West 427 491 34,000  Level Minneapolis Center
07:06PM 41.0586 -93.6014 257° West 432 497 34,000  Level Minneapolis Center
07:07PM 41.0333 -93.7550 258° West 433 498 34,000  Level Minneapolis Center
07:08PM 41.0064 -93.9061 257° West 429 494 34,000  Level Minneapolis Center
07:09PM 40.9739 -94.0894 257° West 430 495 34,000  Level Minneapolis Center
07:10PM 40.9475 -94.2419 257° West 430 495 34,000  Level Minneapolis Center
07:11PM 40.9203 -94.3944 257° West 430 495 34,000  Level Minneapolis Center
07:12PM 40.8917 -94.5472 256° West 432 497 34,000  Level Minneapolis Center
07:13PM 40.8592 -94.7269 257° West 429 494 34,000  Level Minneapolis Center
07:14PM 40.8314 -94.8783 256° West 428 493 34,000  Level Minneapolis Center
07:16PM 40.8047 -95.0303 257° West 425 489 34,000  Level Minneapolis Center
07:17PM 40.7756 -95.1861 256° West 430 495 34,000  Level Minneapolis Center
07:18PM 40.7456 -95.3408 256° West 434 499 34,000  Level Minneapolis Center
07:19PM 40.7164 -95.4950 256° West 433 498 34,000  Level Minneapolis Center
07:20PM 40.6944 -95.6181 257° West 432 497 34,000  Level Minneapolis Center
07:21PM 40.6539 -95.8303 256° West 427 491 34,000  Level Minneapolis Center
07:22PM 40.6250 -95.9814 256° West 425 489 34,000 480 Level Minneapolis Center
07:23PM 40.5956 -96.1367 256° West 431 496 35,100 960 Climbing Minneapolis Center
07:24PM 40.5833 -96.2886 264° West 421 484 36,000 420 Climbing Minneapolis Center
07:25PM 40.5736 -96.4133 264° West 423 487 36,000  Level Minneapolis Center
07:26PM 40.5581 -96.5972 264° West 422 486 36,000  Level Minneapolis Center
07:27PM 40.5469 -96.7481 265° West 416 479 36,000  Level Minneapolis Center
07:28PM 40.5356 -96.9267 265° West 411 473 36,000  Level Minneapolis Center
07:29PM 40.5256 -97.0764 265° West 411 473 36,000  Level Minneapolis Center
07:30PM 40.5175 -97.1972 265° West 413 475 36,000  Level Minneapolis Center
07:31PM 40.4969 -97.3758 261° West 407 468 36,000  Level Minneapolis Center
07:32PM 40.4661 -97.5181 254° West 404 465 36,000  Level Minneapolis Center
07:33PM 40.4344 -97.6636 254° West 410 472 36,000  Level Minneapolis Center
07:34PM 40.4033 -97.8072 254° West 409 471 36,000  Level Minneapolis Center
07:35PM 40.3644 -97.9814 254° West 412 474 36,000  Level Minneapolis Center
07:36PM 40.3328 -98.1269 254° West 413 475 36,000  Level Minneapolis Center
07:37PM 40.2933 -98.3014 254° West 414 476 36,000  Level Minneapolis Center
07:38PM 40.2622 -98.4444 254° West 410 472 36,000  Level Minneapolis Center
07:40PM 40.2292 -98.5878 253° West 410 472 36,000  Level Minneapolis Center
07:41PM 40.1969 -98.7308 254° West 409 471 36,000  Level Minneapolis Center
07:42PM 40.1631 -98.8750 253° West 411 473 36,000  Level Minneapolis Center
07:43PM 40.1294 -99.0225 253° West 418 481 36,000  Level Minneapolis Center
07:44PM 40.0886 -99.1989 253° West 422 486 36,000  Level Denver Center
07:45PM 40.0536 -99.3475 253° West 427 491 36,000  Level Denver Center
07:46PM 40.0108 -99.5256 253° West 427 491 36,000  Level Denver Center
07:47PM 39.9831 -99.6442 253° West 427 491 36,000  Level Denver Center
07:48PM 39.9411 -99.8225 253° West 429 494 36,000  Level Denver Center
07:49PM 39.9053 -99.9700 252° West 428 493 36,000  Level Denver Center
07:50PM 39.8617 -100.1469 252° West 427 491 36,000  Level Denver Center
07:51PM 39.8300 -100.2800 253° West 428 493 36,000  Level Denver Center
07:52PM 39.7897 -100.4433 252° West 425 489 36,000  Level Denver Center
07:53PM 39.7544 -100.5828 252° West 424 488 36,000  Level Denver Center
07:54PM 39.7139 -100.7453 252° West 423 487 36,000  Level Denver Center
07:55PM 39.6797 -100.8819 252° West 417 480 36,000  Level Denver Center
07:56PM 39.6039 -101.0211 235° Southwest 431 496 36,000  Level Denver Center
07:57PM 39.5178 -101.1503 229° Southwest 425 489 36,000  Level Denver Center
07:59PM 39.4317 -101.2811 230° Southwest 427 491 36,000  Level Denver Center
08:00PM 39.3219 -101.3847 216° Southwest 435 501 36,000  Level Denver Center
08:01PM 39.2294 -101.4753 217° Southwest 435 501 36,000  Level Denver Center
08:02PM 39.1219 -101.5758 216° Southwest 426 490 36,000  Level Denver Center
08:03PM 39.0247 -101.6725 218° Southwest 425 489 36,000  Level Denver Center
08:04PM 38.9347 -101.7586 217° Southwest 423 487 36,000  Level Denver Center
08:05PM 38.8464 -101.8464 218° Southwest 420 483 36,000  Level Denver Center
08:06PM 38.7458 -101.9494 219° Southwest 416 479 36,000  Level Denver Center
08:07PM 38.6686 -102.0489 225° Southwest 413 475 36,000  Level Denver Center
08:08PM 38.5908 -102.1778 232° Southwest 412 474 36,000  Level Denver Center
08:09PM 38.5233 -102.2869 232° Southwest 411 473 36,000  Level Denver Center
08:10PM 38.4433 -102.4147 231° Southwest 412 474 36,000  Level Denver Center
08:11PM 38.3647 -102.5158 225° Southwest 424 488 36,000  Level Denver Center
08:12PM 38.2708 -102.6014 216° Southwest 435 501 36,000  Level Denver Center
08:13PM 38.1547 -102.6919 212° Southwest 441 507 36,000  Level Denver Center
08:14PM 38.0244 -102.7975 213° Southwest 438 504 36,000  Level Denver Center
08:15PM 37.9128 -102.8900 213° Southwest 434 499 36,000  Level Denver Center
08:16PM 37.8222 -102.9803 218° Southwest 432 497 36,000  Level Denver Center
08:17PM 37.7139 -103.0856 218° Southwest 436 502 36,000  Level Denver Center
08:18PM 37.6192 -103.1708 216° Southwest 436 502 36,000  Level Denver Center
08:19PM 37.5189 -103.2508 212° Southwest 443 510 36,000  Level Denver Center
08:20PM 37.4019 -103.3411 212° Southwest 440 506 36,000  Level Denver Center
08:22PM 37.3086 -103.4292 217° Southwest 436 502 36,000  Level Denver Center
08:23PM 37.2044 -103.5369 220° Southwest 433 498 36,000  Level Denver Center
08:24PM 37.1683 -103.6636 250° West 406 467 36,000  Level Denver Center
08:25PM 37.1689 -103.7736 270° West 396 456 36,000  Level Denver Center
08:26PM 37.1800 -103.9481 275° West 393 452 36,000  Level Denver Center
08:27PM 37.1961 -104.1000 278° West 392 451 36,000  Level Denver Center
08:28PM 37.2103 -104.2303 278° West 391 450 36,000  Level Denver Center
08:29PM 37.2222 -104.3617 277° West 394 453 36,000  Level Denver Center
08:30PM 37.2086 -104.4928 263° West 398 458 36,000  Level Denver Center
08:31PM 37.1875 -104.6508 261° West 409 471 36,000  Level Denver Center
08:32PM 37.1664 -104.8086 261° West 409 471 36,000  Level Denver Center
08:33PM 37.1483 -104.9433 260° West 409 471 36,000  Level Denver Center
08:34PM 37.1275 -105.0989 261° West 407 468 36,000  Level Denver Center
08:35PM 37.1081 -105.2347 260° West 411 473 36,000  Level Denver Center
08:36PM 37.0856 -105.3928 260° West 412 474 36,000  Level Denver Center
08:37PM 37.0661 -105.5281 260° West 412 474 36,000  Level Denver Center
08:38PM 37.0464 -105.6586 259° West 400 460 36,000  Level Denver Center
08:39PM 37.0258 -105.8103 260° West 396 456 36,000  Level Denver Center
08:40PM 37.0078 -105.9406 260° West 397 457 36,000  Level Denver Center
08:41PM 36.9875 -106.0706 259° West 398 458 36,000  Level Denver Center
08:42PM 36.9631 -106.2322 259° West 398 458 36,000  Level Denver Center
08:43PM 36.9436 -106.3631 260° West 399 459 36,000  Level Denver Center
08:44PM 36.9208 -106.5156 259° West 402 463 36,000  Level Denver Center
08:45PM 36.9006 -106.6439 259° West 396 456 36,000  Level Denver Center
08:46PM 36.8789 -106.7936 260° West 391 450 36,000  Level Denver Center
08:47PM 36.8578 -106.9194 258° West 388 447 36,000  Level Denver Center
08:48PM 36.8347 -107.0675 259° West 389 448 36,000  Level Denver Center
08:49PM 36.8144 -107.1931 259° West 386 444 36,000  Level Denver Center
08:50PM 36.7950 -107.3183 259° West 385 443 36,000  Level Denver Center
08:51PM 36.7717 -107.4658 259° West 387 445 36,000  Level Denver Center
08:53PM 36.7508 -107.5908 258° West 388 447 36,000  Level Denver Center
08:54PM 36.7269 -107.7394 259° West 390 449 36,000  Level Denver Center
08:55PM 36.7067 -107.8675 259° West 394 453 36,000  Level Denver Center
08:56PM 36.6828 -108.0147 259° West 391 450 36,000  Level Denver Center
08:57PM 36.6611 -108.1425 258° West 393 452 36,000  Level Denver Center
08:58PM 36.6361 -108.2900 258° West 392 451 36,000  Level Denver Center
08:59PM 36.6156 -108.4156 259° West 388 447 36,000  Level Denver Center
09:00PM 36.5903 -108.5619 258° West 389 448 36,000  Level Denver Center
09:01PM 36.5683 -108.6878 258° West 389 448 36,000  Level Denver Center
09:02PM 36.5433 -108.8328 258° West 386 444 36,000  Level Denver Center
09:03PM 36.5217 -108.9567 258° West 386 444 36,000  Level Denver Center
09:04PM 36.4961 -109.1025 258° West 389 448 36,000  Level Denver Center
09:05PM 36.4744 -109.2281 258° West 391 450 36,000  Level Denver Center
09:06PM 36.4481 -109.3756 258° West 394 453 36,000  Level Denver Center
09:07PM 36.4289 -109.4808 257° West 394 453 36,000  Level Denver Center
09:08PM 36.3989 -109.6486 258° West 392 451 36,000  Level Denver Center
09:09PM 36.3758 -109.7742 257° West 391 450 36,000  Level Denver Center
09:10PM 36.3533 -109.8983 257° West 389 448 36,000  Level Denver Center
09:11PM 36.3264 -110.0428 257° West 387 445 36,000  Level Denver Center
09:12PM 36.3017 -110.1764 257° West 387 445 36,000  Level Denver Center
09:13PM 36.2775 -110.3078 257° West 391 450 36,000  Level Denver Center
09:14PM 36.2525 -110.4381 257° West 390 449 36,000  Level Denver Center
09:15PM 36.2289 -110.5678 257° West 388 447 36,000  Level Denver Center
09:16PM 36.2042 -110.6969 257° West 386 444 36,000  Level Denver Center
09:17PM 36.1753 -110.8522 257° West 386 444 36,000  Level Denver Center
09:18PM 36.1494 -110.9800 256° West 383 441 36,000  Level Denver Center
09:19PM 36.1253 -111.1086 257° West 384 442 36,000  Level Denver Center
09:20PM 36.1003 -111.2358 256° West 382 440 36,000  Level Denver Center
09:21PM 36.0753 -111.3625 256° West 380 437 36,000  Level Denver Center
09:22PM 36.0428 -111.4881 252° West 381 438 36,000  Level Denver Center
09:23PM 36.0033 -111.6092 248° West 381 438 36,000  Level Denver Center
09:24PM 35.9586 -111.7561 249° West 381 438 36,000  Level Denver Center
09:26PM 35.9150 -111.8886 248° West 382 440 36,000  Level Los Angeles Center
09:27PM 35.8764 -112.0108 249° West 384 442 36,000  Level Los Angeles Center
09:28PM 35.8375 -112.1344 249° West 387 445 36,000  Level Los Angeles Center
09:29PM 35.7908 -112.2789 248° West 382 440 36,000  Level Los Angeles Center
09:30PM 35.7525 -112.3989 249° West 379 436 36,000  Level Los Angeles Center
09:31PM 35.7136 -112.5192 248° West 382 440 36,000  Level Los Angeles Center
09:32PM 35.6758 -112.6339 248° West 377 434 36,000  Level Los Angeles Center
09:33PM 35.6367 -112.7547 248° West 379 436 36,000  Level Los Angeles Center
09:34PM 35.5900 -112.8969 248° West 375 432 36,000  Level Los Angeles Center
09:35PM 35.5553 -113.0047 248° West 379 436 36,000  Level Los Angeles Center
09:36PM 35.5136 -113.1278 247° West 384 442 36,000  Level Los Angeles Center
09:37PM 35.4669 -113.2711 248° West 377 434 36,000  Level Los Angeles Center
09:38PM 35.4339 -113.3697 248° West 376 433 36,000  Level Los Angeles Center
09:39PM 35.3783 -113.5347 248° West 376 433 36,000  Level Los Angeles Center
09:40PM 35.3394 -113.6528 248° West 378 435 36,000  Level Los Angeles Center
09:41PM 35.2992 -113.7708 247° West 378 435 36,000  Level Los Angeles Center
09:42PM 35.2603 -113.8886 248° West 377 434 36,000  Level Los Angeles Center
09:43PM 35.2192 -114.0053 247° West 371 427 36,000  Level Los Angeles Center
09:44PM 35.1867 -114.1011 247° West 376 433 36,000  Level Los Angeles Center
09:46PM 35.1303 -114.2669 247° West 378 435 36,000  Level Los Angeles Center
09:47PM 35.0814 -114.4086 247° West 380 437 36,000  Level Los Angeles Center
09:48PM 35.0408 -114.5264 247° West 377 434 36,000  Level Los Angeles Center
09:49PM 34.9989 -114.6456 247° West 382 440 36,000  Level Los Angeles Center
09:50PM 34.9578 -114.7631 247° West 377 434 36,000  Level Los Angeles Center
09:51PM 34.9175 -114.8797 247° West 374 430 36,000  Level Los Angeles Center
09:52PM 34.8764 -114.9961 247° West 374 430 36,000  Level Los Angeles Center
09:53PM 34.8358 -115.1142 247° West 376 433 36,000  Level Los Angeles Center
09:54PM 34.7856 -115.2539 246° West 376 433 36,000  Level Los Angeles Center
09:55PM 34.7442 -115.3706 247° West 375 432 36,000 -60 Level Los Angeles Center
09:56PM 34.7022 -115.4861 246° West 374 430 35,900 -540 Descending Los Angeles Center
09:57PM 34.6636 -115.5958 247° West 377 434 35,000 -960 Descending Los Angeles Center
09:58PM 34.6211 -115.7139 246° West 382 440 34,000 -960 Descending Los Angeles Center
09:59PM 34.5783 -115.8344 247° West 387 445 33,100 -960 Descending Los Angeles Center
10:00PM 34.5336 -115.9583 246° West 397 457 32,100 -1,080 Descending Los Angeles Center
10:01PM 34.4797 -116.1081 246° West 403 464 31,000 -1,020 Descending Los Angeles Center
10:02PM 34.4322 -116.2344 246° West 410 472 30,100 -1,020 Descending Los Angeles Center
10:03PM 34.3858 -116.3625 246° West 415 478 29,000 -1,080 Descending Los Angeles Center
10:04PM 34.3389 -116.4892 246° West 413 475 28,000 -1,080 Descending Los Angeles Center
10:05PM 34.2933 -116.6100 245° Southwest 398 458 26,900 -1,080 Descending Los Angeles Center
10:06PM 34.2511 -116.7247 246° West 376 433 25,800 -1,440 Descending Los Angeles Center
10:07PM 34.2100 -116.8339 246° West 359 413 24,000 -1,860 Descending Los Angeles Center
10:08PM 34.1717 -116.9369 246° West 341 392 22,000 -1,920 Descending Los Angeles Center
10:09PM 34.1253 -117.0606 246° West 337 388 19,700 -1,800 Descending Los Angeles Center
10:10PM 34.0842 -117.1633 244° Southwest 320 368 18,000 -1,680 Descending Los Angeles Center
10:11PM 34.0200 -117.2375 224° Southwest 306 352 16,300 -1,680 Descending Los Angeles Center
10:12PM 33.9833 -117.3333 245° Southwest 296 341 14,800 -1,440 Descending Southern California TRACON
10:13PM 34.0000 -117.4167 284° West 283 326 13,500 -1,200 Descending Southern California TRACON
10:14PM 34.0000 -117.5167 270° West 274 315 12,500 -1,200 Descending Southern California TRACON
10:15PM 34.0000 -117.6000 270° West 327 376 11,200 -1,260 Descending Southern California TRACON
10:16PM 34.0000 -117.7000 270° West 271 312 10,000 -600 Descending Southern California TRACON
10:17PM 34.0000 -117.7833 270° West 267 307 10,000 -660 Level Southern California TRACON
10:18PM 33.9833 -117.8833 259° West 266 306 8,700 -1,200 Descending Southern California TRACON
10:19PM 33.9833 -117.9500 270° West 244 281 7,700 -1,080 Descending Southern California TRACON
10:20PM 33.9667 -118.0333 256° West 219 252 6,600 -1,380 Descending Southern California TRACON
10:21PM 33.9667 -118.1000 270° West 215 247 5,000 -1,560 Descending Southern California TRACON
10:22PM 33.9500 -118.1833 256° West 222 255 3,500 -1,200 Descending Southern California TRACON
10:23PM 33.9500 -118.2500 270° West 197 227 2,700 -900 Descending Southern California TRACON
10:24PM 33.9500 -118.3000 270° West 179 206 1,700 -1,080 Descending Southern California TRACON
10:25PM 33.9333 -118.3500 248° West 143 165 600 -660 Descending Southern California TRACON
10:27PM 33.9358 -118.4133 273° West 156 180 200 -300 Descending Los Angeles Center